Time;durP1;ratioP1;P1;durP2;ratioP2;P2;SDS_P1;SDS_P2;PMS_P1;PMS_P2;Temp;Humidity;BMP_temperature;BMP_pressure;BME280_temperature;BME280_humidity;BME280_pressure;Samples;Min_cycle;Max_cycle;Signal;HPM_P1;HPM_P2
2024/03/20 00:01:30;;;;;;;0.30;0.20;;;5.30;94.50;;;;;;5086924;28;20255;-73
2024/03/20 00:03:56;;;;;;;0.30;0.20;;;5.30;94.60;;;;;;5085856;28;20623;-80
2024/03/20 00:06:23;;;;;;;0.30;0.20;;;5.30;94.60;;;;;;5085629;28;20173;-79
2024/03/20 00:08:48;;;;;;;0.30;0.20;;;5.20;94.70;;;;;;5087069;28;20645;-80
2024/03/20 00:11:14;;;;;;;0.30;0.20;;;5.20;95.00;;;;;;5086540;28;20185;-73
2024/03/20 00:13:40;;;;;;;0.30;0.30;;;5.20;95.10;;;;;;5085220;28;20274;-79
2024/03/20 00:16:05;;;;;;;0.30;0.23;;;5.20;94.70;;;;;;5085283;28;20666;-79
2024/03/20 00:18:31;;;;;;;0.30;0.20;;;5.20;94.70;;;;;;5085381;28;20313;-78
2024/03/20 00:20:57;;;;;;;0.30;0.20;;;5.20;95.00;;;;;;5086957;28;20736;-74
2024/03/20 00:23:23;;;;;;;0.30;0.20;;;5.30;94.90;;;;;;5084877;28;20413;-80
2024/03/20 00:25:50;;;;;;;0.30;0.20;;;5.30;94.80;;;;;;5087098;28;20183;-73
2024/03/20 00:28:15;;;;;;;0.30;0.20;;;5.30;94.70;;;;;;5086129;28;20657;-73
2024/03/20 00:30:41;;;;;;;0.30;0.20;;;5.30;94.90;;;;;;5086400;28;20183;-79
2024/03/20 00:33:06;;;;;;;0.30;0.20;;;5.30;95.00;;;;;;5084187;28;20252;-73
2024/03/20 00:35:33;;;;;;;0.30;0.20;;;5.20;95.20;;;;;;5086114;28;20168;-78
2024/03/20 00:38:00;;;;;;;0.30;0.20;;;5.10;95.00;;;;;;5086201;28;20683;-73
2024/03/20 00:40:25;;;;;;;0.30;0.20;;;5.20;94.90;;;;;;5085272;28;20180;-74
2024/03/20 00:42:51;;;;;;;0.30;0.20;;;5.20;94.70;;;;;;5084829;28;20212;-79
2024/03/20 00:45:17;;;;;;;0.30;0.20;;;5.20;94.90;;;;;;5084754;28;20176;-78
2024/03/20 00:47:42;;;;;;;0.30;0.20;;;5.20;94.80;;;;;;5085038;28;20196;-73
2024/03/20 00:50:08;;;;;;;0.30;0.20;;;5.20;94.70;;;;;;5086136;28;20427;-79
2024/03/20 00:52:34;;;;;;;0.30;0.20;;;5.20;94.70;;;;;;5085600;28;20219;-80
2024/03/20 00:55:00;;;;;;;0.30;0.20;;;5.20;95.00;;;;;;5083782;28;20187;-76
2024/03/20 00:57:25;;;;;;;0.30;0.30;;;5.10;94.90;;;;;;5085619;28;20196;-74
2024/03/20 00:59:52;;;;;;;0.30;0.20;;;5.10;95.10;;;;;;5086315;28;20679;-80
2024/03/20 01:02:18;;;;;;;0.30;0.20;;;5.10;95.00;;;;;;5084346;28;20430;-73
2024/03/20 01:04:43;;;;;;;0.30;0.20;;;5.10;95.10;;;;;;5085982;28;20173;-78
2024/03/20 01:07:09;;;;;;;0.30;0.20;;;5.10;95.10;;;;;;5085631;28;20169;-80
2024/03/20 01:09:35;;;;;;;0.30;0.20;;;5.10;95.20;;;;;;5085882;28;20199;-73
2024/03/20 01:12:01;;;;;;;0.30;0.20;;;5.10;95.10;;;;;;5084132;28;20273;-73
2024/03/20 01:14:26;;;;;;;0.30;0.20;;;5.10;95.10;;;;;;5085558;28;20665;-74
2024/03/20 01:16:52;;;;;;;0.30;0.20;;;5.10;95.10;;;;;;5083960;28;20321;-73
2024/03/20 01:19:18;;;;;;;0.30;0.20;;;5.10;95.10;;;;;;5085708;28;20193;-79
2024/03/20 01:21:44;;;;;;;0.30;0.20;;;5.10;95.10;;;;;;5085496;28;20378;-74
2024/03/20 01:24:09;;;;;;;0.30;0.20;;;5.10;95.10;;;;;;5085843;28;20200;-74
2024/03/20 01:26:35;;;;;;;0.30;0.20;;;5.00;95.10;;;;;;5085334;28;20180;-80
2024/03/20 01:29:01;;;;;;;0.30;0.20;;;5.10;95.20;;;;;;5084119;28;20200;-73
2024/03/20 01:31:26;;;;;;;0.30;0.20;;;5.00;95.20;;;;;;5083730;28;20221;-79
2024/03/20 01:33:52;;;;;;;0.30;0.20;;;5.10;95.30;;;;;;5084304;28;20564;-74
2024/03/20 01:36:17;;;;;;;0.30;0.20;;;5.00;95.30;;;;;;5084305;28;20164;-79
2024/03/20 01:38:43;;;;;;;0.30;0.20;;;5.10;95.40;;;;;;5083975;28;20200;-79
2024/03/20 01:41:09;;;;;;;0.30;0.30;;;5.10;95.30;;;;;;5085194;28;20179;-78
2024/03/20 01:43:36;;;;;;;0.30;0.20;;;5.10;95.40;;;;;;5083903;28;20228;-73
2024/03/20 01:46:24;;;;;;;0.30;0.20;;;5.10;95.40;;;;;;5085246;28;20544;-80
2024/03/20 01:48:49;;;;;;;0.30;0.20;;;5.10;95.60;;;;;;5084318;28;20664;-80
2024/03/20 01:51:15;;;;;;;0.30;0.20;;;5.10;95.60;;;;;;5084884;28;20187;-74
2024/03/20 01:53:41;;;;;;;0.30;0.20;;;5.10;95.50;;;;;;5083795;28;20220;-78
2024/03/20 01:56:07;;;;;;;0.30;0.20;;;5.00;95.50;;;;;;5085313;28;20703;-73
2024/03/20 01:58:33;;;;;;;0.30;0.20;;;5.10;95.50;;;;;;5084026;28;20441;-73
2024/03/20 02:00:59;;;;;;;0.30;0.20;;;5.00;95.40;;;;;;5083903;28;20425;-79
2024/03/20 02:03:25;;;;;;;0.30;0.20;;;5.00;95.50;;;;;;5084836;28;20199;-73
2024/03/20 02:05:50;;;;;;;0.30;0.20;;;4.90;95.90;;;;;;5086182;28;20699;-73
2024/03/20 02:08:16;;;;;;;0.30;0.20;;;4.90;95.70;;;;;;5087618;28;20397;-73
2024/03/20 02:10:41;;;;;;;0.30;0.20;;;4.90;95.60;;;;;;5088090;28;20188;-79
2024/03/20 02:13:07;;;;;;;0.30;0.20;;;4.90;95.70;;;;;;5087133;28;20219;-80
2024/03/20 02:15:34;;;;;;;0.30;0.20;;;4.90;95.70;;;;;;5088895;28;20565;-77
2024/03/20 02:18:00;;;;;;;0.30;0.20;;;4.80;96.10;;;;;;5087242;28;20600;-79
2024/03/20 02:20:26;;;;;;;0.30;0.20;;;4.80;95.90;;;;;;5087633;28;20279;-73
2024/03/20 02:22:52;;;;;;;0.30;0.20;;;4.70;95.80;;;;;;5087302;28;20287;-74
2024/03/20 02:25:19;;;;;;;0.30;0.20;;;4.70;96.00;;;;;;5087440;28;20261;-80
2024/03/20 02:27:46;;;;;;;0.30;0.30;;;4.60;96.10;;;;;;5088631;28;20196;-80
2024/03/20 02:30:13;;;;;;;0.30;0.20;;;4.60;96.10;;;;;;5088671;28;20221;-74
2024/03/20 02:32:40;;;;;;;0.30;0.20;;;4.60;96.00;;;;;;5088254;28;20243;-73
2024/03/20 02:35:06;;;;;;;0.30;0.20;;;4.60;96.10;;;;;;5087547;28;20180;-74
2024/03/20 02:37:32;;;;;;;0.30;0.20;;;4.50;96.00;;;;;;5087311;28;20193;-79
2024/03/20 02:39:58;;;;;;;0.30;0.20;;;4.50;96.10;;;;;;5088793;28;20201;-79
2024/03/20 02:42:24;;;;;;;0.30;0.20;;;4.50;96.20;;;;;;5088066;28;20231;-79
2024/03/20 02:44:50;;;;;;;0.30;0.20;;;4.40;96.20;;;;;;5088681;28;20817;-73
2024/03/20 02:47:17;;;;;;;0.30;0.20;;;4.40;96.20;;;;;;5086746;28;20814;-73
2024/03/20 02:49:42;;;;;;;0.30;0.20;;;4.40;96.30;;;;;;5087213;28;20203;-79
2024/03/20 02:52:08;;;;;;;0.30;0.30;;;4.40;96.40;;;;;;5086254;28;20212;-73
2024/03/20 02:54:35;;;;;;;0.30;0.20;;;4.40;96.50;;;;;;5086971;28;20738;-74
2024/03/20 02:57:00;;;;;;;0.30;0.20;;;4.40;96.50;;;;;;5086638;28;20172;-79
2024/03/20 02:59:26;;;;;;;0.30;0.30;;;4.40;96.50;;;;;;5087028;28;20657;-79
2024/03/20 03:01:52;;;;;;;0.30;0.20;;;4.30;96.60;;;;;;5086566;28;20420;-73
2024/03/20 03:04:17;;;;;;;0.30;0.20;;;4.30;96.80;;;;;;5088049;28;20200;-79
2024/03/20 03:06:43;;;;;;;0.30;0.30;;;4.30;96.80;;;;;;5088127;28;20207;-73
2024/03/20 03:09:14;;;;;;;0.30;0.20;;;4.30;96.90;;;;;;5088066;28;20196;-73
2024/03/20 03:11:40;;;;;;;0.30;0.20;;;4.30;97.10;;;;;;5087868;28;20893;-79
2024/03/20 03:14:06;;;;;;;0.30;0.20;;;4.20;97.40;;;;;;5086625;28;20220;-79
2024/03/20 03:16:31;;;;;;;0.30;0.30;;;4.30;97.50;;;;;;5085133;28;20224;-79
2024/03/20 03:18:57;;;;;;;0.30;0.20;;;4.30;97.60;;;;;;5087681;28;20240;-80
2024/03/20 03:21:23;;;;;;;0.30;0.20;;;4.30;97.60;;;;;;5085998;28;20180;-79
2024/03/20 03:23:48;;;;;;;0.30;0.20;;;4.30;97.80;;;;;;5087986;28;20203;-73
2024/03/20 03:26:14;;;;;;;0.30;0.20;;;4.30;97.50;;;;;;5087542;28;20638;-78
2024/03/20 03:28:40;;;;;;;0.30;0.20;;;4.30;97.80;;;;;;5087942;28;20207;-73
2024/03/20 03:31:05;;;;;;;0.30;0.30;;;4.20;97.90;;;;;;5087406;28;20177;-79
2024/03/20 03:33:31;;;;;;;0.30;0.20;;;4.20;97.80;;;;;;5085845;28;20492;-73
2024/03/20 03:36:07;;;;;;;0.30;0.30;;;4.20;97.90;;;;;;5086107;28;20226;-73
2024/03/20 03:38:33;;;;;;;0.30;0.20;;;4.10;97.90;;;;;;5084888;28;20407;-80
2024/03/20 03:41:39;;;;;;;0.30;0.20;;;4.00;98.30;;;;;;5087327;28;20660;-79
2024/03/20 03:44:05;;;;;;;0.30;0.20;;;4.00;98.20;;;;;;5087331;28;20200;-79
2024/03/20 03:46:31;;;;;;;0.30;0.30;;;4.00;98.20;;;;;;5087160;28;20176;-79
2024/03/20 03:48:57;;;;;;;0.30;0.20;;;3.90;98.30;;;;;;5087530;28;20616;-74
2024/03/20 03:51:22;;;;;;;0.30;0.20;;;3.90;98.20;;;;;;5086812;28;20183;-74
2024/03/20 03:53:48;;;;;;;0.30;0.20;;;3.80;98.20;;;;;;5087292;28;20473;-73
2024/03/20 03:56:13;;;;;;;0.30;0.20;;;3.70;98.40;;;;;;5086866;28;20220;-78
2024/03/20 03:58:39;;;;;;;0.30;0.30;;;3.60;98.60;;;;;;5086877;28;20196;-79
2024/03/20 04:01:05;;;;;;;0.30;0.20;;;3.60;99.00;;;;;;5087018;28;20646;-79
2024/03/20 04:03:30;;;;;;;0.30;0.20;;;3.60;98.90;;;;;;5086921;28;20184;-79
2024/03/20 04:06:00;;;;;;;0.30;0.20;;;3.70;98.70;;;;;;5087169;28;20413;-73
2024/03/20 04:08:26;;;;;;;0.30;0.20;;;3.80;98.70;;;;;;5085638;28;20193;-79
2024/03/20 04:10:52;;;;;;;0.30;0.20;;;3.80;98.60;;;;;;5085926;28;20272;-73
2024/03/20 04:13:18;;;;;;;0.30;0.20;;;3.80;98.60;;;;;;5085298;28;20902;-80
2024/03/20 04:15:44;;;;;;;0.30;0.20;;;3.80;98.60;;;;;;5085391;28;20913;-79
2024/03/20 04:18:10;;;;;;;0.30;0.30;;;3.90;98.60;;;;;;5084750;28;20228;-79
2024/03/20 04:20:35;;;;;;;0.30;0.20;;;3.90;98.70;;;;;;5085377;28;20263;-79
2024/03/20 04:23:02;;;;;;;0.30;0.20;;;3.90;98.60;;;;;;5086683;28;20200;-80
2024/03/20 04:25:28;;;;;;;0.30;0.20;;;4.00;98.50;;;;;;5086788;28;20895;-73
2024/03/20 04:27:55;;;;;;;0.30;0.20;;;4.10;98.50;;;;;;5086480;28;20216;-74
2024/03/20 04:30:21;;;;;;;0.30;0.20;;;4.20;98.30;;;;;;5086418;28;20169;-73
2024/03/20 04:32:47;;;;;;;0.30;0.20;;;4.30;98.30;;;;;;5086407;28;20281;-79
2024/03/20 04:35:13;;;;;;;0.30;0.20;;;4.30;98.20;;;;;;5086711;28;20413;-79
2024/03/20 04:37:39;;;;;;;6.50;5.93;;;4.40;98.20;;;;;;5084456;28;20722;-73
2024/03/20 04:40:06;;;;;;;0.30;0.20;;;4.50;98.00;;;;;;5084304;28;20605;-74
2024/03/20 04:42:35;;;;;;;0.40;0.40;;;4.50;97.90;;;;;;5085820;28;20520;-73
2024/03/20 04:45:01;;;;;;;0.30;0.20;;;4.50;97.80;;;;;;5084959;28;20177;-79
2024/03/20 04:47:27;;;;;;;0.30;0.20;;;4.50;97.70;;;;;;5084534;28;20314;-73
2024/03/20 04:49:53;;;;;;;0.30;0.20;;;4.60;97.70;;;;;;5084850;28;20180;-74
2024/03/20 04:52:18;;;;;;;0.93;0.93;;;4.70;97.70;;;;;;5084047;28;20307;-79
2024/03/20 04:54:44;;;;;;;0.30;0.20;;;4.70;97.60;;;;;;5074715;28;20177;-74
2024/03/20 04:57:10;;;;;;;0.30;0.20;;;4.70;97.60;;;;;;5065592;28;20680;-73
2024/03/20 04:59:35;;;;;;;0.30;0.20;;;4.80;97.60;;;;;;5064698;28;20188;-75
2024/03/20 05:02:01;;;;;;;0.30;0.20;;;4.80;97.50;;;;;;5065466;28;20189;-78
2024/03/20 05:04:27;;;;;;;0.30;0.20;;;4.90;97.50;;;;;;5064203;28;20692;-74
2024/03/20 05:06:53;;;;;;;0.30;0.20;;;4.90;97.40;;;;;;5063069;28;20181;-81
2024/03/20 05:09:19;;;;;;;2.70;2.60;;;5.00;97.30;;;;;;5065623;28;20193;-80
2024/03/20 05:11:45;;;;;;;0.30;0.25;;;5.00;97.60;;;;;;5063956;28;20208;-74
2024/03/20 05:14:11;;;;;;;0.30;0.20;;;5.00;97.20;;;;;;5063889;28;20202;-80
2024/03/20 05:16:36;;;;;;;2.57;2.47;;;5.00;97.20;;;;;;5064853;28;20169;-73
2024/03/20 05:19:02;;;;;;;0.30;0.20;;;5.10;97.30;;;;;;5063278;28;20247;-80
2024/03/20 05:21:28;;;;;;;0.30;0.20;;;5.20;97.50;;;;;;5081577;28;20796;-73
2024/03/20 05:23:54;;;;;;;0.30;0.30;;;5.20;97.40;;;;;;5085745;28;20694;-80
2024/03/20 05:26:20;;;;;;;0.30;0.30;;;5.30;97.30;;;;;;5083279;28;20413;-79
2024/03/20 05:28:46;;;;;;;0.50;0.50;;;5.30;97.10;;;;;;5085041;28;20428;-73
2024/03/20 05:31:30;;;;;;;0.30;0.20;;;5.40;97.50;;;;;;5083167;28;20695;-80
2024/03/20 05:33:56;;;;;;;0.65;0.63;;;5.40;97.40;;;;;;5084764;28;20817;-78
2024/03/20 05:36:22;;;;;;;0.33;0.20;;;5.40;97.20;;;;;;5085088;28;20187;-80
2024/03/20 05:38:48;;;;;;;0.30;0.20;;;5.40;97.20;;;;;;5083397;28;20205;-74
2024/03/20 05:41:14;;;;;;;0.30;0.20;;;5.40;97.20;;;;;;5087778;28;20176;-74
2024/03/20 05:43:41;;;;;;;0.30;0.30;;;5.30;97.20;;;;;;5074038;28;20924;-80
2024/03/20 05:46:09;;;;;;;0.30;0.20;;;5.30;97.20;;;;;;5067538;28;20238;-74
2024/03/20 05:48:38;;;;;;;0.30;0.20;;;5.30;97.30;;;;;;5068164;28;20238;-74
2024/03/20 05:51:04;;;;;;;0.30;0.20;;;5.30;97.40;;;;;;5082647;28;20195;-80
2024/03/20 05:53:29;;;;;;;0.30;0.20;;;5.40;97.40;;;;;;5089896;28;20855;-74
2024/03/20 05:55:55;;;;;;;0.40;0.40;;;5.40;97.50;;;;;;5089991;28;20812;-74
2024/03/20 05:58:21;;;;;;;0.30;0.20;;;5.40;97.50;;;;;;5088626;28;20323;-80
2024/03/20 06:00:46;;;;;;;0.30;0.20;;;5.40;97.70;;;;;;5089915;28;20636;-80
2024/03/20 06:03:13;;;;;;;0.30;0.20;;;5.30;98.10;;;;;;5090665;28;20196;-74
2024/03/20 06:05:38;;;;;;;0.30;0.20;;;5.20;98.60;;;;;;5090387;28;20493;-74
2024/03/20 06:08:04;;;;;;;0.30;0.20;;;5.20;98.80;;;;;;5090206;28;20196;-80
2024/03/20 06:10:30;;;;;;;0.30;0.20;;;5.20;99.00;;;;;;5090267;28;20176;-74
2024/03/20 06:12:55;;;;;;;0.30;0.20;;;5.20;98.90;;;;;;5090958;28;20579;-80
2024/03/20 06:15:21;;;;;;;0.30;0.20;;;5.20;99.00;;;;;;5090553;28;20245;-80
2024/03/20 06:17:47;;;;;;;0.30;0.20;;;5.20;99.40;;;;;;5090602;28;20875;-74
2024/03/20 06:20:15;;;;;;;0.30;0.20;;;5.20;99.50;;;;;;5073561;28;20429;-74
2024/03/20 06:22:41;;;;;;;0.30;0.20;;;5.30;99.40;;;;;;5069055;28;20201;-74
2024/03/20 06:25:07;;;;;;;0.30;0.20;;;5.30;99.80;;;;;;5081878;28;20668;-74
2024/03/20 06:27:34;;;;;;;0.30;0.30;;;5.40;99.90;;;;;;5084887;28;20576;-74
2024/03/20 06:30:00;;;;;;;0.30;0.20;;;5.50;99.50;;;;;;5088169;28;20180;-80
2024/03/20 06:32:25;;;;;;;0.30;0.20;;;5.60;99.50;;;;;;5079827;28;20255;-80
2024/03/20 06:34:52;;;;;;;0.30;0.20;;;5.70;99.80;;;;;;5088239;28;20432;-75
2024/03/20 06:37:18;;;;;;;0.30;0.20;;;5.70;99.70;;;;;;5089215;28;20176;-74
2024/03/20 06:39:44;;;;;;;0.30;0.30;;;5.80;99.90;;;;;;5087227;28;20180;-74
2024/03/20 06:42:22;;;;;;;0.30;0.20;;;5.90;99.80;;;;;;5084458;28;20324;-80
2024/03/20 06:44:48;;;;;;;46.55;41.80;;;6.10;99.90;;;;;;5085892;28;20203;-80
2024/03/20 06:47:16;;;;;;;0.30;0.20;;;6.20;99.90;;;;;;5088892;28;20179;-81
2024/03/20 06:49:44;;;;;;;0.30;0.20;;;6.40;99.90;;;;;;5080276;28;20633;-74
2024/03/20 06:52:12;;;;;;;0.30;0.20;;;6.50;99.90;;;;;;5080943;28;20258;-74
2024/03/20 06:54:42;;;;;;;0.30;0.20;;;6.60;99.90;;;;;;5081931;28;20187;-74
2024/03/20 06:57:10;;;;;;;0.30;0.20;;;6.80;99.60;;;;;;5082996;28;20680;-74
2024/03/20 06:59:37;;;;;;;0.30;0.20;;;6.90;99.30;;;;;;5087774;28;20195;-74
2024/03/20 07:02:03;;;;;;;0.30;0.20;;;7.00;99.00;;;;;;5077873;28;20587;-74
2024/03/20 07:04:29;;;;;;;0.30;0.20;;;7.10;98.50;;;;;;5082624;28;20246;-74
2024/03/20 07:06:56;;;;;;;0.30;0.20;;;7.30;98.50;;;;;;5081133;28;20847;-80
2024/03/20 07:09:22;;;;;;;0.30;0.30;;;7.40;98.40;;;;;;5081244;28;20212;-79
2024/03/20 07:11:48;;;;;;;0.30;0.20;;;7.60;98.50;;;;;;5067181;28;20652;-80
2024/03/20 07:14:16;;;;;;;0.30;0.20;;;7.70;98.40;;;;;;5075409;28;20201;-80
2024/03/20 07:16:42;;;;;;;0.30;0.20;;;7.90;98.50;;;;;;5059276;28;20169;-81
2024/03/20 07:19:08;;;;;;;0.30;0.30;;;8.00;98.40;;;;;;5059317;28;20882;-80
2024/03/20 07:21:35;;;;;;;0.30;0.20;;;8.20;98.30;;;;;;5060195;28;20493;-74
2024/03/20 07:24:02;;;;;;;0.30;0.20;;;8.40;98.00;;;;;;5059346;28;20248;-74
2024/03/20 07:26:32;;;;;;;0.30;0.20;;;8.50;97.70;;;;;;5062161;28;20686;-80
2024/03/20 07:28:57;;;;;;;0.30;0.25;;;8.70;97.70;;;;;;5061080;28;20216;-74
2024/03/20 07:31:23;;;;;;;0.30;0.20;;;8.90;97.00;;;;;;5076042;28;20222;-73
2024/03/20 07:33:48;;;;;;;0.30;0.20;;;9.10;96.60;;;;;;5084333;28;20226;-74
2024/03/20 07:36:14;;;;;;;0.30;0.20;;;9.30;96.50;;;;;;5082769;28;20172;-78
2024/03/20 07:38:40;;;;;;;0.30;0.20;;;9.50;96.20;;;;;;5081937;28;20192;-73
2024/03/20 07:41:06;;;;;;;0.33;0.30;;;9.60;95.60;;;;;;5084294;28;20180;-73
2024/03/20 07:43:32;;;;;;;1.38;1.30;;;9.80;95.50;;;;;;5085059;28;20197;-73
2024/03/20 07:45:58;;;;;;;1.00;0.97;;;10.00;95.60;;;;;;5083640;28;20233;-80
2024/03/20 07:48:23;;;;;;;0.50;0.47;;;10.10;95.20;;;;;;5083976;28;20200;-78
2024/03/20 07:50:56;;;;;;;0.30;0.20;;;10.30;95.00;;;;;;5086076;28;20516;-74
2024/03/20 07:53:21;;;;;;;0.30;0.20;;;10.50;94.70;;;;;;5083892;28;20251;-74
2024/03/20 07:55:50;;;;;;;0.30;0.20;;;10.60;94.40;;;;;;5084833;28;20196;-73
2024/03/20 07:58:17;;;;;;;0.30;0.20;;;10.80;93.80;;;;;;5084540;28;20188;-79
2024/03/20 08:00:44;;;;;;;0.30;0.20;;;10.90;93.60;;;;;;5075438;28;20184;-79
2024/03/20 08:03:10;;;;;;;0.50;0.50;;;11.10;93.80;;;;;;5060646;28;20250;-79
2024/03/20 08:05:36;;;;;;;0.30;0.20;;;11.20;93.40;;;;;;5066708;28;20185;-79
2024/03/20 08:08:01;;;;;;;0.30;0.20;;;11.40;93.10;;;;;;5064174;28;20610;-74
2024/03/20 08:10:27;;;;;;;0.30;0.20;;;11.50;93.30;;;;;;5061324;28;20177;-74
2024/03/20 08:12:53;;;;;;;2.47;2.27;;;11.70;93.30;;;;;;5060874;28;20224;-79
2024/03/20 08:15:18;;;;;;;0.70;0.70;;;11.90;92.80;;;;;;5063227;28;20619;-74
2024/03/20 08:17:47;;;;;;;0.30;0.20;;;12.10;92.60;;;;;;5079249;28;20262;-74
2024/03/20 08:20:13;;;;;;;1.03;0.97;;;12.20;92.50;;;;;;5081146;28;20176;-79
2024/03/20 08:22:40;;;;;;;1.07;1.07;;;12.40;92.50;;;;;;5081861;28;20480;-79
2024/03/20 08:25:07;;;;;;;0.30;0.20;;;12.70;92.20;;;;;;5083583;28;20412;-79
2024/03/20 08:27:33;;;;;;;0.30;0.20;;;13.20;92.20;;;;;;5065751;28;20457;-80
2024/03/20 08:29:59;;;;;;;0.30;0.20;;;13.70;91.30;;;;;;5082131;28;20405;-79
2024/03/20 08:32:25;;;;;;;0.67;0.67;;;14.70;90.30;;;;;;5082435;28;21201;-74
2024/03/20 08:34:51;;;;;;;0.40;0.20;;;15.70;87.20;;;;;;5080476;28;20945;-74
2024/03/20 08:37:17;;;;;;;0.40;0.40;;;16.80;84.10;;;;;;5081997;28;20481;-80
2024/03/20 08:39:42;;;;;;;0.40;0.20;;;17.70;83.30;;;;;;5076715;28;20205;-81
2024/03/20 08:42:08;;;;;;;0.40;0.40;;;18.70;79.70;;;;;;5061552;28;20174;-80
2024/03/20 08:44:34;;;;;;;1.90;1.80;;;19.50;76.70;;;;;;5062720;28;20166;-80
2024/03/20 08:47:00;;;;;;;0.40;0.20;;;20.20;75.60;;;;;;5066184;28;20225;-80
2024/03/20 08:49:26;;;;;;;1.00;0.80;;;20.90;73.60;;;;;;5081865;28;20526;-75
2024/03/20 08:51:53;;;;;;;0.40;0.30;;;21.60;72.20;;;;;;5080809;28;20464;-75
2024/03/20 08:54:20;;;;;;;0.40;0.30;;;22.20;70.20;;;;;;5082071;28;20216;-81
2024/03/20 08:56:46;;;;;;;0.40;0.40;;;22.90;68.90;;;;;;5080422;28;20488;-80
2024/03/20 08:59:12;;;;;;;0.40;0.20;;;23.30;67.20;;;;;;5079229;28;20463;-81
2024/03/20 09:01:38;;;;;;;0.40;0.40;;;23.70;65.70;;;;;;5076918;28;20531;-80
2024/03/20 09:04:04;;;;;;;0.40;0.20;;;24.10;63.10;;;;;;5062620;28;20200;-74
2024/03/20 09:06:29;;;;;;;1.63;1.53;;;24.10;63.40;;;;;;5061398;28;20534;-75
2024/03/20 09:08:55;;;;;;;0.30;0.20;;;24.20;63.30;;;;;;5075607;28;20213;-75
2024/03/20 09:11:21;;;;;;;1.53;1.30;;;24.20;63.50;;;;;;5069911;28;20675;-75
2024/03/20 09:13:48;;;;;;;2.20;0.80;;;24.20;62.50;;;;;;5072759;28;20901;-80
2024/03/20 09:16:14;;;;;;;0.30;0.20;;;24.20;61.40;;;;;;5060701;28;21041;-80
2024/03/20 09:18:40;;;;;;;1.33;0.97;;;24.10;61.20;;;;;;5061215;28;20541;-80
2024/03/20 09:21:06;;;;;;;0.30;0.20;;;23.80;61.20;;;;;;5082453;28;20174;-80
2024/03/20 09:23:32;;;;;;;0.30;0.20;;;23.40;61.30;;;;;;5077655;28;20190;-75
2024/03/20 09:25:57;;;;;;;1.13;0.50;;;23.30;61.60;;;;;;5058470;28;20473;-80
2024/03/20 09:28:23;;;;;;;0.30;0.27;;;23.40;61.80;;;;;;5057199;28;20229;-75
2024/03/20 09:30:49;;;;;;;12.73;1.07;;;23.30;61.40;;;;;;5066749;28;20209;-80
2024/03/20 09:33:14;;;;;;;0.60;0.60;;;23.20;62.20;;;;;;5080076;28;20249;-80
2024/03/20 09:35:40;;;;;;;2.10;0.97;;;23.10;62.20;;;;;;5067663;28;20204;-75
2024/03/20 09:38:05;;;;;;;1.73;0.80;;;23.30;59.90;;;;;;5077594;28;20246;-75
2024/03/20 09:40:31;;;;;;;0.30;0.20;;;23.40;60.30;;;;;;5078550;28;20242;-80
2024/03/20 09:42:57;;;;;;;0.50;0.50;;;23.50;59.90;;;;;;5062812;28;20218;-80
2024/03/20 09:45:26;;;;;;;0.50;0.30;;;23.50;60.20;;;;;;5076741;28;20214;-75
2024/03/20 09:47:52;;;;;;;2.07;1.93;;;23.70;59.60;;;;;;5080295;28;20504;-75
2024/03/20 09:50:19;;;;;;;0.57;0.57;;;23.90;58.70;;;;;;5063968;28;20421;-75
2024/03/20 09:52:47;;;;;;;3.60;1.27;;;23.70;59.00;;;;;;5060398;28;20559;-77
2024/03/20 09:55:15;;;;;;;0.30;0.30;;;23.50;59.80;;;;;;5063357;28;20441;-80
2024/03/20 09:57:46;;;;;;;0.30;0.30;;;23.50;59.30;;;;;;5072628;28;20449;-75
2024/03/20 10:00:14;;;;;;;0.30;0.20;;;23.40;59.40;;;;;;5069938;28;20613;-80
2024/03/20 10:02:44;;;;;;;1.57;0.87;;;23.10;59.90;;;;;;5070896;28;20463;-75
2024/03/20 10:05:14;;;;;;;0.30;0.30;;;22.80;60.00;;;;;;5080138;28;20428;-80
2024/03/20 10:07:43;;;;;;;0.47;0.47;;;22.60;59.70;;;;;;5077024;28;20498;-75
2024/03/20 10:10:14;;;;;;;0.30;0.30;;;22.50;60.40;;;;;;5074996;28;20479;-75
2024/03/20 10:12:41;;;;;;;0.30;0.20;;;22.30;60.30;;;;;;5080759;28;20660;-80
2024/03/20 10:15:10;;;;;;;0.47;0.47;;;22.00;60.10;;;;;;5079610;28;20519;-80
2024/03/20 10:17:37;;;;;;;0.30;0.20;;;21.60;63.30;;;;;;5078064;28;20573;-74
2024/03/20 10:20:20;;;;;;;1.27;1.27;;;21.30;65.10;;;;;;5079784;28;20478;-81
2024/03/20 10:22:47;;;;;;;1.47;0.97;;;21.00;62.30;;;;;;5077249;28;20467;-81
2024/03/20 10:25:17;;;;;;;2.20;1.80;;;20.30;62.40;;;;;;5079251;28;20971;-75
2024/03/20 10:27:45;;;;;;;0.30;0.20;;;19.70;63.30;;;;;;5082635;28;21015;-81
2024/03/20 10:30:16;;;;;;;1.43;1.43;;;19.40;64.20;;;;;;5085974;28;21062;-81
2024/03/20 10:32:50;;;;;;;0.30;0.20;;;19.30;64.50;;;;;;5085972;28;20464;-81
2024/03/20 10:35:18;;;;;;;0.30;0.20;;;19.20;63.60;;;;;;5082915;28;20463;-75
2024/03/20 10:37:45;;;;;;;0.30;0.20;;;19.00;64.00;;;;;;5077702;28;20463;-81
2024/03/20 10:40:21;;;;;;;0.30;0.20;;;18.80;65.40;;;;;;5082883;28;20417;-82
2024/03/20 10:42:49;;;;;;;0.53;0.53;;;18.40;66.70;;;;;;5083831;28;20479;-75
2024/03/20 10:45:16;;;;;;;2.20;2.00;;;18.20;66.30;;;;;;5081705;28;20451;-75
2024/03/20 10:47:45;;;;;;;0.30;0.20;;;18.10;65.60;;;;;;5084765;28;20813;-78
2024/03/20 10:50:16;;;;;;;1.27;1.27;;;18.10;65.80;;;;;;5083301;28;20426;-74
2024/03/20 10:52:46;;;;;;;0.40;0.20;;;18.00;66.00;;;;;;5079609;28;20482;-81
2024/03/20 10:55:17;;;;;;;1.27;1.27;;;17.90;66.80;;;;;;5080275;28;20454;-81
2024/03/20 10:57:43;;;;;;;0.30;0.20;;;17.80;66.50;;;;;;5074899;28;21131;-79
2024/03/20 11:00:19;;;;;;;0.30;0.20;;;17.80;67.40;;;;;;5071339;28;20432;-74
2024/03/20 11:02:46;;;;;;;0.30;0.20;;;17.80;67.30;;;;;;5076836;28;20209;-81
2024/03/20 11:05:36;;;;;;;0.93;0.93;;;17.80;67.60;;;;;;5078196;28;20425;-81
2024/03/20 11:08:01;;;;;;;2.17;1.87;;;17.90;67.10;;;;;;5060966;28;21049;-74
2024/03/20 11:10:29;;;;;;;0.30;0.20;;;17.90;66.80;;;;;;5081871;28;20469;-75
2024/03/20 11:12:57;;;;;;;2.20;2.10;;;17.90;67.60;;;;;;5083759;28;20222;-75
2024/03/20 11:15:26;;;;;;;0.30;0.20;;;17.90;67.80;;;;;;5082459;28;20911;-81
2024/03/20 11:17:52;;;;;;;1.70;1.07;;;17.90;68.00;;;;;;5069581;28;20618;-75
2024/03/20 11:20:34;;;;;;;0.37;0.30;;;18.00;67.40;;;;;;5080866;28;20513;-75
2024/03/20 11:23:06;;;;;;;0.50;0.50;;;18.00;67.30;;;;;;5079241;28;20446;-81
2024/03/20 11:25:39;;;;;;;0.30;0.20;;;18.00;67.80;;;;;;5082141;28;20431;-75
2024/03/20 11:28:05;;;;;;;0.30;0.20;;;18.10;68.40;;;;;;5080057;28;20801;-75
2024/03/20 11:30:31;;;;;;;0.50;0.50;;;18.20;69.50;;;;;;5080996;28;20921;-75
2024/03/20 11:32:57;;;;;;;0.73;0.73;;;18.40;68.70;;;;;;5081176;28;20476;-74
2024/03/20 11:35:26;;;;;;;0.30;0.20;;;18.50;68.40;;;;;;5081486;28;20469;-81
2024/03/20 11:37:52;;;;;;;0.30;0.27;;;18.50;68.10;;;;;;5084446;28;20195;-75
2024/03/20 11:40:18;;;;;;;0.30;0.20;;;18.50;66.40;;;;;;5084859;28;20518;-75
2024/03/20 11:42:43;;;;;;;0.30;0.20;;;18.40;66.30;;;;;;5076468;28;20330;-75
2024/03/20 11:45:11;;;;;;;0.30;0.20;;;18.30;67.80;;;;;;5066908;28;20213;-75
2024/03/20 11:47:37;;;;;;;0.30;0.20;;;18.30;67.80;;;;;;5066161;28;20230;-81
2024/03/20 11:50:03;;;;;;;0.30;0.20;;;18.30;68.60;;;;;;5076948;28;20415;-74
2024/03/20 11:52:29;;;;;;;0.30;0.30;;;18.40;67.50;;;;;;5066954;28;20476;-80
2024/03/20 11:54:55;;;;;;;0.40;0.30;;;18.30;67.00;;;;;;5067414;28;20502;-80
2024/03/20 11:57:23;;;;;;;0.73;0.73;;;18.20;67.00;;;;;;5071574;28;20222;-80
2024/03/20 11:59:54;;;;;;;0.30;0.20;;;18.20;68.00;;;;;;5068017;28;20417;-74
2024/03/20 12:02:22;;;;;;;0.30;0.30;;;18.20;66.60;;;;;;5073917;28;20454;-80
2024/03/20 12:04:49;;;;;;;5.20;1.13;;;18.20;67.80;;;;;;5072550;28;20410;-74
2024/03/20 12:07:28;;;;;;;0.30;0.20;;;18.10;67.60;;;;;;5069968;28;20436;-81
2024/03/20 12:09:56;;;;;;;0.30;0.20;;;18.10;67.60;;;;;;5069992;28;20474;-75
2024/03/20 12:12:26;;;;;;;0.97;0.93;;;17.90;67.00;;;;;;5064045;28;20467;-75
2024/03/20 12:14:53;;;;;;;0.30;0.20;;;17.80;67.30;;;;;;5074343;28;20435;-74
2024/03/20 12:17:19;;;;;;;0.30;0.20;;;17.50;68.30;;;;;;5072825;28;20537;-81
2024/03/20 12:19:46;;;;;;;0.30;0.20;;;17.50;68.20;;;;;;5070206;28;20423;-75
2024/03/20 12:22:14;;;;;;;0.30;0.20;;;17.60;68.00;;;;;;5072946;28;21018;-74
2024/03/20 12:24:42;;;;;;;0.30;0.30;;;17.40;67.70;;;;;;5073795;28;20452;-81
2024/03/20 12:27:11;;;;;;;0.73;0.73;;;17.50;68.00;;;;;;5075344;28;20438;-80
2024/03/20 12:29:37;;;;;;;2.57;2.00;;;17.50;68.50;;;;;;5076197;28;20440;-80
2024/03/20 12:32:03;;;;;;;0.30;0.20;;;17.50;69.60;;;;;;5077264;28;20438;-75
2024/03/20 12:34:29;;;;;;;0.30;0.20;;;17.50;68.10;;;;;;5079874;28;20241;-80
2024/03/20 12:36:55;;;;;;;0.30;0.20;;;17.50;68.00;;;;;;5076071;28;20731;-75
2024/03/20 12:39:20;;;;;;;0.30;0.20;;;17.60;68.60;;;;;;5074528;28;20428;-75
2024/03/20 12:41:47;;;;;;;0.87;0.87;;;17.60;68.30;;;;;;5079544;28;20805;-75
2024/03/20 12:44:14;;;;;;;0.30;0.20;;;17.70;69.60;;;;;;5075104;28;20204;-80
2024/03/20 12:46:39;;;;;;;0.30;0.20;;;17.80;68.50;;;;;;5075037;28;20460;-81
2024/03/20 12:49:12;;;;;;;0.30;0.20;;;17.80;67.50;;;;;;5066699;28;21049;-74
2024/03/20 12:51:38;;;;;;;0.30;0.20;;;17.80;67.80;;;;;;5070181;28;20228;-81